sensor_id;sensor_type;location;lat;lon;timestamp;pressure;altitude;pressure_sealevel;temperature;humidity
37634;BME280;32048;49.902;22.508;2023-05-10T00:00:46;99302.34;;;1.83;100.00
37634;BME280;32048;49.902;22.508;2023-05-10T00:03:13;99307.56;;;1.80;100.00
37634;BME280;32048;49.902;22.508;2023-05-10T00:05:40;99305.81;;;1.79;100.00
37634;BME280;32048;49.902;22.508;2023-05-10T00:08:07;99298.06;;;1.76;100.00
37634;BME280;32048;49.902;22.508;2023-05-10T00:10:35;99293.75;;;1.75;100.00
37634;BME280;32048;49.902;22.508;2023-05-10T00:13:03;99293.75;;;1.72;100.00
37634;BME280;32048;49.902;22.508;2023-05-10T00:15:30;99294.63;;;1.70;100.00
37634;BME280;32048;49.902;22.508;2023-05-10T00:17:57;99294.66;;;1.65;100.00
37634;BME280;32048;49.902;22.508;2023-05-10T00:20:24;99295.59;;;1.58;100.00
37634;BME280;32048;49.902;22.508;2023-05-10T00:22:51;99295.63;;;1.55;100.00
37634;BME280;32048;49.902;22.508;2023-05-10T00:25:19;99296.50;;;1.49;100.00
37634;BME280;32048;49.902;22.508;2023-05-10T00:27:48;99300.00;;;1.43;100.00
37634;BME280;32048;49.902;22.508;2023-05-10T00:30:16;99295.69;;;1.41;100.00
37634;BME280;32048;49.902;22.508;2023-05-10T00:32:43;99296.59;;;1.35;100.00
37634;BME280;32048;49.902;22.508;2023-05-10T00:35:10;99295.78;;;1.27;100.00
37634;BME280;32048;49.902;22.508;2023-05-10T00:37:37;99307.97;;;1.23;100.00
37634;BME280;32048;49.902;22.508;2023-05-10T00:40:05;99296.72;;;1.17;100.00
37634;BME280;32048;49.902;22.508;2023-05-10T00:42:32;99294.16;;;1.12;100.00
37634;BME280;32048;49.902;22.508;2023-05-10T00:45:00;99293.28;;;1.09;100.00
37634;BME280;32048;49.902;22.508;2023-05-10T00:47:27;99294.19;;;1.01;100.00
37634;BME280;32048;49.902;22.508;2023-05-10T00:49:54;99293.34;;;0.98;100.00
37634;BME280;32048;49.902;22.508;2023-05-10T00:52:22;99293.34;;;0.93;100.00
37634;BME280;32048;49.902;22.508;2023-05-10T00:54:51;99297.72;;;0.87;100.00
37634;BME280;32048;49.902;22.508;2023-05-10T00:57:19;99287.34;;;0.83;100.00
37634;BME280;32048;49.902;22.508;2023-05-10T00:59:46;99293.41;;;0.79;100.00
37634;BME280;32048;49.902;22.508;2023-05-10T01:02:13;99290.84;;;0.75;100.00
37634;BME280;32048;49.902;22.508;2023-05-10T01:04:40;99285.63;;;0.72;100.00
37634;BME280;32048;49.902;22.508;2023-05-10T01:07:07;99282.19;;;0.68;100.00
37634;BME280;32048;49.902;22.508;2023-05-10T01:09:35;99285.66;;;0.64;100.00
37634;BME280;32048;49.902;22.508;2023-05-10T01:12:02;99273.56;;;0.57;100.00
37634;BME280;32048;49.902;22.508;2023-05-10T01:14:30;99281.34;;;0.54;100.00
37634;BME280;32048;49.902;22.508;2023-05-10T01:16:57;99285.72;;;0.49;100.00
37634;BME280;32048;49.902;22.508;2023-05-10T01:19:26;99279.69;;;0.44;100.00
37634;BME280;32048;49.902;22.508;2023-05-10T01:25:11;99290.97;;;0.36;100.00
37634;BME280;32048;49.902;22.508;2023-05-10T01:33:19;99288.38;;;0.21;100.00
37634;BME280;32048;49.902;22.508;2023-05-10T01:36:08;99280.59;;;0.16;100.00
37634;BME280;32048;49.902;22.508;2023-05-10T01:38:48;99282.34;;;0.16;100.00
37634;BME280;32048;49.902;22.508;2023-05-10T01:41:25;99284.09;;;0.09;100.00
37634;BME280;32048;49.902;22.508;2023-05-10T01:44:07;99274.56;;;0.01;100.00
37634;BME280;32048;49.902;22.508;2023-05-10T01:46:38;99278.88;;;-0.05;100.00
37634;BME280;32048;49.902;22.508;2023-05-10T01:49:10;99268.50;;;-0.12;100.00
37634;BME280;32048;49.902;22.508;2023-05-10T01:51:44;99273.72;;;-0.15;100.00
37634;BME280;32048;49.902;22.508;2023-05-10T01:54:13;99269.38;;;-0.16;100.00
37634;BME280;32048;49.902;22.508;2023-05-10T01:56:45;99273.72;;;-0.20;100.00
37634;BME280;32048;49.902;22.508;2023-05-10T01:59:17;99277.19;;;-0.24;100.00
37634;BME280;32048;49.902;22.508;2023-05-10T02:01:46;99271.13;;;-0.26;100.00
37634;BME280;32048;49.902;22.508;2023-05-10T02:04:16;99268.53;;;-0.31;100.00
37634;BME280;32048;49.902;22.508;2023-05-10T02:06:45;99272.84;;;-0.34;100.00
37634;BME280;32048;49.902;22.508;2023-05-10T02:09:14;99266.78;;;-0.36;100.00
37634;BME280;32048;49.902;22.508;2023-05-10T02:11:43;99269.38;;;-0.39;100.00
37634;BME280;32048;49.902;22.508;2023-05-10T02:14:11;99265.06;;;-0.42;100.00
37634;BME280;32048;49.902;22.508;2023-05-10T02:16:39;99265.91;;;-0.48;100.00
37634;BME280;32048;49.902;22.508;2023-05-10T02:19:07;99254.66;;;-0.50;100.00
37634;BME280;32048;49.902;22.508;2023-05-10T02:21:36;99266.75;;;-0.56;100.00
37634;BME280;32048;49.902;22.508;2023-05-10T02:24:04;99261.59;;;-0.58;100.00
37634;BME280;32048;49.902;22.508;2023-05-10T02:26:33;99253.81;;;-0.64;100.00
37634;BME280;32048;49.902;22.508;2023-05-10T02:29:03;99261.59;;;-0.67;100.00
37634;BME280;32048;49.902;22.508;2023-05-10T02:31:32;99261.59;;;-0.69;100.00
37634;BME280;32048;49.902;22.508;2023-05-10T02:34:00;99263.31;;;-0.74;100.00
37634;BME280;32048;49.902;22.508;2023-05-10T02:36:28;99257.25;;;-0.76;100.00
37634;BME280;32048;49.902;22.508;2023-05-10T02:38:56;99264.16;;;-0.78;100.00
37634;BME280;32048;49.902;22.508;2023-05-10T02:41:25;99256.38;;;-0.84;100.00
37634;BME280;32048;49.902;22.508;2023-05-10T02:43:56;99265.00;;;-0.87;100.00
37634;BME280;32048;49.902;22.508;2023-05-10T02:46:26;99250.31;;;-0.89;100.00
37634;BME280;32048;49.902;22.508;2023-05-10T02:48:53;99256.34;;;-0.95;100.00
37634;BME280;32048;49.902;22.508;2023-05-10T02:51:23;99257.19;;;-0.99;100.00
37634;BME280;32048;49.902;22.508;2023-05-10T02:53:53;99256.31;;;-1.02;100.00
37634;BME280;32048;49.902;22.508;2023-05-10T02:56:29;99261.50;;;-1.04;100.00
37634;BME280;32048;49.902;22.508;2023-05-10T02:58:58;99258.03;;;-1.06;100.00
37634;BME280;32048;49.902;22.508;2023-05-10T03:01:25;99254.56;;;-1.08;100.00
37634;BME280;32048;49.902;22.508;2023-05-10T03:03:52;99250.25;;;-1.11;100.00
37634;BME280;32048;49.902;22.508;2023-05-10T03:06:19;99253.72;;;-1.09;100.00
37634;BME280;32048;49.902;22.508;2023-05-10T03:08:46;99258.91;;;-1.09;100.00
37634;BME280;32048;49.902;22.508;2023-05-10T03:11:28;99250.25;;;-1.06;100.00
37634;BME280;32048;49.902;22.508;2023-05-10T03:14:16;99252.88;;;-1.03;100.00
37634;BME280;32048;49.902;22.508;2023-05-10T03:17:06;99249.44;;;-1.00;100.00
37634;BME280;32048;49.902;22.508;2023-05-10T03:19:55;99254.59;;;-0.94;100.00
37634;BME280;32048;49.902;22.508;2023-05-10T03:22:26;99250.28;;;-0.88;100.00
37634;BME280;32048;49.902;22.508;2023-05-10T03:24:56;99249.44;;;-0.84;100.00
37634;BME280;32048;49.902;22.508;2023-05-10T03:27:26;99243.41;;;-0.78;100.00
37634;BME280;32048;49.902;22.508;2023-05-10T03:29:53;99247.72;;;-0.72;100.00
37634;BME280;32048;49.902;22.508;2023-05-10T03:32:22;99246.00;;;-0.61;100.00
37634;BME280;32048;49.902;22.508;2023-05-10T03:34:49;99244.31;;;-0.51;100.00
37634;BME280;32048;49.902;22.508;2023-05-10T03:37:17;99234.81;;;-0.40;100.00
37634;BME280;32048;49.902;22.508;2023-05-10T03:39:44;99243.44;;;-0.26;100.00
37634;BME280;32048;49.902;22.508;2023-05-10T03:42:11;99241.69;;;-0.11;100.00
37634;BME280;32048;49.902;22.508;2023-05-10T03:44:39;99243.38;;;0.07;100.00
37634;BME280;32048;49.902;22.508;2023-05-10T03:47:06;99239.03;;;0.26;100.00
37634;BME280;32048;49.902;22.508;2023-05-10T03:49:33;99229.44;;;0.48;100.00
37634;BME280;32048;49.902;22.508;2023-05-10T03:52:00;99236.25;;;0.73;100.00
37634;BME280;32048;49.902;22.508;2023-05-10T03:54:27;99233.50;;;1.04;100.00
37634;BME280;32048;49.902;22.508;2023-05-10T03:56:54;99230.66;;;1.38;100.00
37634;BME280;32048;49.902;22.508;2023-05-10T03:59:21;99222.59;;;1.70;100.00
37634;BME280;32048;49.902;22.508;2023-05-10T04:01:49;99224.03;;;2.03;100.00
37634;BME280;32048;49.902;22.508;2023-05-10T04:04:16;99227.09;;;2.42;100.00
37634;BME280;32048;49.902;22.508;2023-05-10T04:06:46;99231.78;;;2.84;100.00
37634;BME280;32048;49.902;22.508;2023-05-10T04:09:13;99235.56;;;3.25;100.00
37634;BME280;32048;49.902;22.508;2023-05-10T04:11:40;99234.94;;;3.65;100.00
37634;BME280;32048;49.902;22.508;2023-05-10T04:14:07;99241.25;;;4.04;100.00
37634;BME280;32048;49.902;22.508;2023-05-10T04:16:34;99237.94;;;4.43;100.00
37634;BME280;32048;49.902;22.508;2023-05-10T04:19:01;99240.63;;;4.83;100.00
37634;BME280;32048;49.902;22.508;2023-05-10T04:21:29;99244.97;;;5.25;100.00
37634;BME280;32048;49.902;22.508;2023-05-10T04:23:57;99243.06;;;5.67;100.00
37634;BME280;32048;49.902;22.508;2023-05-10T04:26:24;99242.94;;;6.09;100.00
37634;BME280;32048;49.902;22.508;2023-05-10T04:28:52;99247.13;;;6.49;100.00
37634;BME280;32048;49.902;22.508;2023-05-10T04:31:19;99241.50;;;6.93;100.00
37634;BME280;32048;49.902;22.508;2023-05-10T04:33:46;99242.75;;;7.39;98.70
37634;BME280;32048;49.902;22.508;2023-05-10T04:36:13;99240.50;;;7.81;92.78
37634;BME280;32048;49.902;22.508;2023-05-10T04:38:40;99253.13;;;8.23;88.24
37634;BME280;32048;49.902;22.508;2023-05-10T04:41:08;99252.78;;;8.59;85.74
37634;BME280;32048;49.902;22.508;2023-05-10T04:43:36;99257.63;;;8.95;80.15
37634;BME280;32048;49.902;22.508;2023-05-10T04:46:04;99250.09;;;9.31;79.92
37634;BME280;32048;49.902;22.508;2023-05-10T04:48:31;99241.38;;;9.73;77.28
37634;BME280;32048;49.902;22.508;2023-05-10T04:50:58;99242.19;;;10.18;75.49
37634;BME280;32048;49.902;22.508;2023-05-10T04:53:25;99236.66;;;10.65;71.99
37634;BME280;32048;49.902;22.508;2023-05-10T04:55:53;99240.66;;;11.12;69.57
37634;BME280;32048;49.902;22.508;2023-05-10T04:58:19;99241.94;;;11.60;66.80
37634;BME280;32048;49.902;22.508;2023-05-10T05:00:47;99249.28;;;12.09;62.68
37634;BME280;32048;49.902;22.508;2023-05-10T05:03:13;99244.34;;;12.53;59.88
37634;BME280;32048;49.902;22.508;2023-05-10T05:05:41;99248.31;;;12.95;57.30
37634;BME280;32048;49.902;22.508;2023-05-10T05:08:08;99245.97;;;13.38;55.94
37634;BME280;32048;49.902;22.508;2023-05-10T05:10:35;99233.63;;;13.85;54.34
37634;BME280;32048;49.902;22.508;2023-05-10T05:13:02;99241.44;;;14.32;49.99
37634;BME280;32048;49.902;22.508;2023-05-10T05:15:29;99237.81;;;14.64;49.95
37634;BME280;32048;49.902;22.508;2023-05-10T05:17:57;99233.38;;;14.93;48.35
37634;BME280;32048;49.902;22.508;2023-05-10T05:20:24;99230.22;;;15.15;46.49
37634;BME280;32048;49.902;22.508;2023-05-10T05:22:51;99231.06;;;15.30;46.97
37634;BME280;32048;49.902;22.508;2023-05-10T05:25:18;99221.84;;;15.63;46.26
37634;BME280;32048;49.902;22.508;2023-05-10T05:27:45;99233.38;;;15.90;42.33
37634;BME280;32048;49.902;22.508;2023-05-10T05:30:12;99229.44;;;15.96;42.24
37634;BME280;32048;49.902;22.508;2023-05-10T05:32:40;99233.56;;;15.87;41.42
37634;BME280;32048;49.902;22.508;2023-05-10T05:35:07;99230.28;;;15.84;41.21
37634;BME280;32048;49.902;22.508;2023-05-10T05:37:34;99221.97;;;15.61;40.66
37634;BME280;32048;49.902;22.508;2023-05-10T05:40:02;99224.09;;;15.42;40.50
37634;BME280;32048;49.902;22.508;2023-05-10T05:42:31;99220.78;;;15.38;41.37
37634;BME280;32048;49.902;22.508;2023-05-10T05:44:58;99229.50;;;15.40;40.36
37634;BME280;32048;49.902;22.508;2023-05-10T05:47:25;99228.03;;;15.36;40.58
37634;BME280;32048;49.902;22.508;2023-05-10T05:49:52;99225.97;;;15.54;40.78
37634;BME280;32048;49.902;22.508;2023-05-10T05:52:19;99227.41;;;15.87;38.69
37634;BME280;32048;49.902;22.508;2023-05-10T05:54:47;99229.66;;;15.93;39.21
37634;BME280;32048;49.902;22.508;2023-05-10T05:57:15;99230.28;;;15.84;37.28
37634;BME280;32048;49.902;22.508;2023-05-10T05:59:42;99227.28;;;15.61;37.30
37634;BME280;32048;49.902;22.508;2023-05-10T06:02:10;99220.00;;;15.50;38.72
37634;BME280;32048;49.902;22.508;2023-05-10T06:04:37;99219.19;;;15.21;39.69
37634;BME280;32048;49.902;22.508;2023-05-10T06:07:05;99238.50;;;14.96;38.27
37634;BME280;32048;49.902;22.508;2023-05-10T06:09:32;99219.28;;;15.20;39.63
37634;BME280;32048;49.902;22.508;2023-05-10T06:11:59;99225.91;;;15.41;38.52
37634;BME280;32048;49.902;22.508;2023-05-10T06:14:26;99228.78;;;15.79;38.38
37634;BME280;32048;49.902;22.508;2023-05-10T06:16:53;99231.63;;;15.62;36.31
37634;BME280;32048;49.902;22.508;2023-05-10T06:19:20;99230.63;;;15.50;36.45
37634;BME280;32048;49.902;22.508;2023-05-10T06:21:48;99232.78;;;15.16;37.95
37634;BME280;32048;49.902;22.508;2023-05-10T06:24:16;99233.19;;;15.10;38.20
37634;BME280;32048;49.902;22.508;2023-05-10T06:26:43;99233.75;;;15.01;36.95
37634;BME280;32048;49.902;22.508;2023-05-10T06:29:10;99238.22;;;14.72;37.14
37634;BME280;32048;49.902;22.508;2023-05-10T06:31:37;99236.66;;;14.53;38.34
37634;BME280;32048;49.902;22.508;2023-05-10T06:34:04;99231.03;;;14.44;38.26
37634;BME280;32048;49.902;22.508;2023-05-10T06:36:31;99277.44;;;14.38;38.33
37634;BME280;32048;49.902;22.508;2023-05-10T06:38:58;99250.47;;;14.00;38.11
37634;BME280;32048;49.902;22.508;2023-05-10T06:41:25;99242.44;;;13.85;39.27
37634;BME280;32048;49.902;22.508;2023-05-10T06:43:52;99249.28;;;13.89;40.07
37634;BME280;32048;49.902;22.508;2023-05-10T06:46:19;99239.94;;;13.98;39.00
37634;BME280;32048;49.902;22.508;2023-05-10T06:48:46;99240.34;;;14.06;40.13
37634;BME280;32048;49.902;22.508;2023-05-10T06:51:13;99243.22;;;14.18;40.14
37634;BME280;32048;49.902;22.508;2023-05-10T06:53:40;99240.91;;;14.42;38.93
37634;BME280;32048;49.902;22.508;2023-05-10T06:56:07;99251.59;;;14.70;38.80
37634;BME280;32048;49.902;22.508;2023-05-10T06:58:34;99241.06;;;14.83;39.00
37634;BME280;32048;49.902;22.508;2023-05-10T07:01:02;99255.88;;;14.73;38.43
37634;BME280;32048;49.902;22.508;2023-05-10T07:03:30;99270.81;;;14.15;39.84
37634;BME280;32048;49.902;22.508;2023-05-10T07:06:02;99249.84;;;14.10;40.61
37634;BME280;32048;49.902;22.508;2023-05-10T07:08:31;99245.38;;;14.11;40.43
37634;BME280;32048;49.902;22.508;2023-05-10T07:13:28;99248.22;;;14.52;41.08
37634;BME280;32048;49.902;22.508;2023-05-10T07:15:55;99251.50;;;14.72;40.36
37634;BME280;32048;49.902;22.508;2023-05-10T07:18:22;99254.56;;;14.50;40.14
37634;BME280;32048;49.902;22.508;2023-05-10T07:20:49;99253.22;;;14.28;39.92
37634;BME280;32048;49.902;22.508;2023-05-10T07:23:17;99251.00;;;14.51;40.29
37634;BME280;32048;49.902;22.508;2023-05-10T07:25:48;99245.16;;;14.74;40.89
37634;BME280;32048;49.902;22.508;2023-05-10T07:28:15;99248.66;;;15.18;39.00
37634;BME280;32048;49.902;22.508;2023-05-10T07:30:43;99282.75;;;15.26;36.75
37634;BME280;32048;49.902;22.508;2023-05-10T07:33:12;99260.91;;;15.06;37.82
37634;BME280;32048;49.902;22.508;2023-05-10T07:35:40;99242.38;;;15.19;39.34
37634;BME280;32048;49.902;22.508;2023-05-10T07:38:07;99250.78;;;15.40;38.31
37634;BME280;32048;49.902;22.508;2023-05-10T07:40:34;99245.84;;;15.48;38.33
37634;BME280;32048;49.902;22.508;2023-05-10T07:43:01;99253.69;;;15.64;38.44
37634;BME280;32048;49.902;22.508;2023-05-10T07:45:29;99261.19;;;15.86;36.90
37634;BME280;32048;49.902;22.508;2023-05-10T07:47:56;99247.78;;;15.88;35.37
37634;BME280;32048;49.902;22.508;2023-05-10T07:50:23;99256.00;;;15.97;35.64
37634;BME280;32048;49.902;22.508;2023-05-10T07:52:50;99252.22;;;16.27;36.32
37634;BME280;32048;49.902;22.508;2023-05-10T07:55:18;99252.38;;;16.77;36.44
37634;BME280;32048;49.902;22.508;2023-05-10T07:57:45;99245.56;;;16.73;35.21
37634;BME280;32048;49.902;22.508;2023-05-10T08:00:13;99261.81;;;16.82;35.36
37634;BME280;32048;49.902;22.508;2023-05-10T08:02:43;99265.97;;;16.87;34.98
37634;BME280;32048;49.902;22.508;2023-05-10T08:05:11;99250.34;;;16.68;34.86
37634;BME280;32048;49.902;22.508;2023-05-10T08:07:38;99250.06;;;16.98;34.34
37634;BME280;32048;49.902;22.508;2023-05-10T08:10:05;99254.09;;;17.16;33.64
37634;BME280;32048;49.902;22.508;2023-05-10T08:12:33;99236.56;;;17.62;34.00
37634;BME280;32048;49.902;22.508;2023-05-10T08:15:00;99233.72;;;18.24;32.92
37634;BME280;32048;49.902;22.508;2023-05-10T08:17:27;99257.25;;;18.43;31.80
37634;BME280;32048;49.902;22.508;2023-05-10T08:19:54;99268.72;;;17.97;29.79
37634;BME280;32048;49.902;22.508;2023-05-10T08:22:21;99252.13;;;17.68;31.84
37634;BME280;32048;49.902;22.508;2023-05-10T08:24:48;99250.41;;;17.43;30.88
37634;BME280;32048;49.902;22.508;2023-05-10T08:27:15;99257.66;;;17.54;29.99
37634;BME280;32048;49.902;22.508;2023-05-10T08:29:42;99241.69;;;17.65;30.60
37634;BME280;32048;49.902;22.508;2023-05-10T08:32:15;99238.03;;;18.03;33.01
37634;BME280;32048;49.902;22.508;2023-05-10T08:34:43;99237.91;;;18.40;31.26
37634;BME280;32048;49.902;22.508;2023-05-10T08:37:10;99235.34;;;18.49;31.48
37634;BME280;32048;49.902;22.508;2023-05-10T08:39:40;99246.69;;;18.53;29.37
37634;BME280;32048;49.902;22.508;2023-05-10T08:42:08;99239.41;;;18.55;29.98
37634;BME280;32048;49.902;22.508;2023-05-10T08:44:36;99243.91;;;18.66;31.34
37634;BME280;32048;49.902;22.508;2023-05-10T08:47:08;99256.56;;;18.64;29.46
37634;BME280;32048;49.902;22.508;2023-05-10T08:49:36;99240.84;;;18.48;29.91
37634;BME280;32048;49.902;22.508;2023-05-10T08:52:04;99246.19;;;18.48;29.19
37634;BME280;32048;49.902;22.508;2023-05-10T08:54:33;99248.69;;;18.38;29.79
37634;BME280;32048;49.902;22.508;2023-05-10T08:57:00;99236.44;;;18.00;29.93
37634;BME280;32048;49.902;22.508;2023-05-10T08:59:28;99247.38;;;17.60;30.60
37634;BME280;32048;49.902;22.508;2023-05-10T09:01:58;99242.31;;;17.69;29.82
37634;BME280;32048;49.902;22.508;2023-05-10T09:04:26;99239.91;;;17.90;30.42
37634;BME280;32048;49.902;22.508;2023-05-10T09:06:53;99263.22;;;18.12;30.30
37634;BME280;32048;49.902;22.508;2023-05-10T09:09:21;99244.63;;;18.45;30.49
37634;BME280;32048;49.902;22.508;2023-05-10T09:11:48;99230.81;;;18.97;28.77
37634;BME280;32048;49.902;22.508;2023-05-10T09:14:16;99226.78;;;19.36;28.98
37634;BME280;32048;49.902;22.508;2023-05-10T09:16:44;99238.25;;;19.04;28.28
37634;BME280;32048;49.902;22.508;2023-05-10T09:19:11;99231.91;;;18.83;27.42
37634;BME280;32048;49.902;22.508;2023-05-10T09:21:38;99233.13;;;18.79;27.89
37634;BME280;32048;49.902;22.508;2023-05-10T09:24:07;99243.56;;;18.70;28.08
37634;BME280;32048;49.902;22.508;2023-05-10T09:26:35;99228.59;;;18.57;28.32
37634;BME280;32048;49.902;22.508;2023-05-10T09:29:03;99215.63;;;18.86;28.90
37634;BME280;32048;49.902;22.508;2023-05-10T09:31:51;99223.66;;;18.86;27.42
37634;BME280;32048;49.902;22.508;2023-05-10T09:34:19;99204.91;;;18.75;28.60
37634;BME280;32048;49.902;22.508;2023-05-10T09:36:51;99212.22;;;18.95;29.49
37634;BME280;32048;49.902;22.508;2023-05-10T09:39:18;99205.84;;;19.41;28.30
37634;BME280;32048;49.902;22.508;2023-05-10T09:41:45;99203.41;;;19.49;28.04
37634;BME280;32048;49.902;22.508;2023-05-10T09:44:16;99228.66;;;19.02;26.87
37634;BME280;32048;49.902;22.508;2023-05-10T09:46:49;99219.75;;;18.79;28.64
37634;BME280;32048;49.902;22.508;2023-05-10T09:49:16;99201.75;;;19.03;28.55
37634;BME280;32048;49.902;22.508;2023-05-10T09:51:43;99206.38;;;19.35;27.75
37634;BME280;32048;49.902;22.508;2023-05-10T09:54:14;99216.31;;;19.56;27.18
37634;BME280;32048;49.902;22.508;2023-05-10T09:56:42;99206.28;;;20.01;26.61
37634;BME280;32048;49.902;22.508;2023-05-10T09:59:11;99204.50;;;20.65;28.75
37634;BME280;32048;49.902;22.508;2023-05-10T10:01:38;99208.56;;;20.59;25.84
37634;BME280;32048;49.902;22.508;2023-05-10T10:04:10;99207.84;;;20.57;25.96
37634;BME280;32048;49.902;22.508;2023-05-10T10:06:38;99202.53;;;20.46;27.67
37634;BME280;32048;49.902;22.508;2023-05-10T10:09:07;99173.81;;;20.37;27.44
37634;BME280;32048;49.902;22.508;2023-05-10T10:11:36;99193.16;;;20.40;26.68
37634;BME280;32048;49.902;22.508;2023-05-10T10:14:04;99198.56;;;19.87;27.42
37634;BME280;32048;49.902;22.508;2023-05-10T10:16:32;99199.00;;;19.60;26.65
37634;BME280;32048;49.902;22.508;2023-05-10T10:19:00;99205.41;;;19.02;27.53
37634;BME280;32048;49.902;22.508;2023-05-10T10:21:27;99196.22;;;18.48;29.43
37634;BME280;32048;49.902;22.508;2023-05-10T10:23:54;99208.69;;;18.25;28.54
37634;BME280;32048;49.902;22.508;2023-05-10T10:26:22;99198.41;;;18.32;28.38
37634;BME280;32048;49.902;22.508;2023-05-10T10:29:27;99197.81;;;18.62;28.70
37634;BME280;32048;49.902;22.508;2023-05-10T10:34:27;99185.66;;;19.26;29.50
37634;BME280;32048;49.902;22.508;2023-05-10T10:36:55;99186.38;;;19.39;29.14
37634;BME280;32048;49.902;22.508;2023-05-10T10:39:24;99161.59;;;19.69;26.90
37634;BME280;32048;49.902;22.508;2023-05-10T10:41:55;99173.50;;;20.09;27.88
37634;BME280;32048;49.902;22.508;2023-05-10T10:57:56;99154.25;;;19.83;26.94
37634;BME280;32048;49.902;22.508;2023-05-10T11:00:40;99139.13;;;19.82;26.81
37634;BME280;32048;49.902;22.508;2023-05-10T11:03:12;99151.00;;;20.00;29.03
37634;BME280;32048;49.902;22.508;2023-05-10T11:05:47;99126.44;;;19.84;29.65
37634;BME280;32048;49.902;22.508;2023-05-10T11:08:25;99130.03;;;19.62;28.39
37634;BME280;32048;49.902;22.508;2023-05-10T11:13:34;99124.53;;;19.75;28.65
37634;BME280;32048;49.902;22.508;2023-05-10T11:16:11;99124.41;;;19.32;28.56
37634;BME280;32048;49.902;22.508;2023-05-10T11:18:39;99125.72;;;19.17;29.90
37634;BME280;32048;49.902;22.508;2023-05-10T11:21:08;99121.63;;;19.34;29.81
37634;BME280;32048;49.902;22.508;2023-05-10T11:23:48;99135.19;;;19.10;28.62
37634;BME280;32048;49.902;22.508;2023-05-10T11:26:15;99122.69;;;18.99;28.41
37634;BME280;32048;49.902;22.508;2023-05-10T11:31:10;99108.03;;;19.15;29.01
37634;BME280;32048;49.902;22.508;2023-05-10T11:33:43;99098.22;;;19.15;28.32
37634;BME280;32048;49.902;22.508;2023-05-10T11:36:13;99131.81;;;18.85;28.45
37634;BME280;32048;49.902;22.508;2023-05-10T11:38:41;99119.41;;;18.51;28.02
37634;BME280;32048;49.902;22.508;2023-05-10T11:41:09;99102.84;;;18.12;29.61
37634;BME280;32048;49.902;22.508;2023-05-10T11:43:41;99106.47;;;17.99;31.09
37634;BME280;32048;49.902;22.508;2023-05-10T11:46:13;99103.16;;;17.96;30.90
37634;BME280;32048;49.902;22.508;2023-05-10T11:48:41;99101.09;;;17.64;29.63
37634;BME280;32048;49.902;22.508;2023-05-10T11:51:09;99099.16;;;17.66;29.77
37634;BME280;32048;49.902;22.508;2023-05-10T11:53:37;99095.56;;;17.78;28.73
37634;BME280;32048;49.902;22.508;2023-05-10T11:56:09;99096.19;;;18.28;29.85
37634;BME280;32048;49.902;22.508;2023-05-10T11:58:37;99095.34;;;18.62;30.52
37634;BME280;32048;49.902;22.508;2023-05-10T12:01:07;99105.19;;;18.61;29.30
37634;BME280;32048;49.902;22.508;2023-05-10T12:03:34;99095.69;;;18.57;30.44
37634;BME280;32048;49.902;22.508;2023-05-10T12:06:02;99102.88;;;18.34;29.42
37634;BME280;32048;49.902;22.508;2023-05-10T12:08:30;99097.03;;;18.52;29.54
37634;BME280;32048;49.902;22.508;2023-05-10T12:11:08;99083.63;;;18.97;28.44
37634;BME280;32048;49.902;22.508;2023-05-10T12:13:42;99066.16;;;18.93;28.77
37634;BME280;32048;49.902;22.508;2023-05-10T12:16:15;99078.41;;;18.95;29.51
37634;BME280;32048;49.902;22.508;2023-05-10T12:18:42;99086.19;;;18.98;26.94
37634;BME280;32048;49.902;22.508;2023-05-10T12:21:14;99081.94;;;18.96;28.03
37634;BME280;32048;49.902;22.508;2023-05-10T12:23:41;99078.94;;;18.78;27.29
37634;BME280;32048;49.902;22.508;2023-05-10T12:26:09;99087.91;;;18.43;29.92
37634;BME280;32048;49.902;22.508;2023-05-10T12:28:37;99096.41;;;18.03;27.50
37634;BME280;32048;49.902;22.508;2023-05-10T12:31:05;99076.78;;;17.91;30.09
37634;BME280;32048;49.902;22.508;2023-05-10T12:33:43;99076.97;;;17.65;29.59
37634;BME280;32048;49.902;22.508;2023-05-10T12:36:12;99066.63;;;17.61;31.05
37634;BME280;32048;49.902;22.508;2023-05-10T12:38:41;99057.59;;;17.86;31.06
37634;BME280;32048;49.902;22.508;2023-05-10T12:41:17;99090.44;;;18.11;29.65
37634;BME280;32048;49.902;22.508;2023-05-10T12:43:44;99056.06;;;17.71;28.55
37634;BME280;32048;49.902;22.508;2023-05-10T12:46:16;99057.84;;;17.48;30.53
37634;BME280;32048;49.902;22.508;2023-05-10T12:48:44;99060.63;;;17.46;30.16
37634;BME280;32048;49.902;22.508;2023-05-10T12:51:32;99052.38;;;17.49;30.24
37634;BME280;32048;49.902;22.508;2023-05-10T12:53:59;99059.72;;;17.70;30.45
37634;BME280;32048;49.902;22.508;2023-05-10T12:56:26;99046.81;;;17.52;29.31
37634;BME280;32048;49.902;22.508;2023-05-10T12:58:53;99043.06;;;17.55;30.47
37634;BME280;32048;49.902;22.508;2023-05-10T13:01:20;99030.72;;;17.65;29.99
37634;BME280;32048;49.902;22.508;2023-05-10T13:03:47;99047.16;;;17.83;30.25
37634;BME280;32048;49.902;22.508;2023-05-10T13:06:15;99030.03;;;17.85;30.23
37634;BME280;32048;49.902;22.508;2023-05-10T13:08:41;99038.72;;;17.65;29.15
37634;BME280;32048;49.902;22.508;2023-05-10T13:11:09;99048.75;;;17.50;30.12
37634;BME280;32048;49.902;22.508;2023-05-10T13:13:36;99036.59;;;17.46;28.53
37634;BME280;32048;49.902;22.508;2023-05-10T13:16:03;99030.97;;;17.27;29.34
37634;BME280;32048;49.902;22.508;2023-05-10T13:18:30;99045.16;;;17.27;30.27
37634;BME280;32048;49.902;22.508;2023-05-10T13:20:57;99037.94;;;17.16;29.25
37634;BME280;32048;49.902;22.508;2023-05-10T13:23:24;99043.50;;;17.13;29.92
37634;BME280;32048;49.902;22.508;2023-05-10T13:25:52;99013.38;;;17.00;29.57
37634;BME280;32048;49.902;22.508;2023-05-10T13:28:18;99020.75;;;16.96;31.01